sensor_id;sensor_type;location;lat;lon;timestamp;pressure;altitude;pressure_sealevel;temperature;humidity
27429;BME280;14881;48.092;11.574;2024-03-02T00:00:50;94458.78;;;4.47;100.00
27429;BME280;14881;48.092;11.574;2024-03-02T00:03:19;94458.78;;;4.47;100.00
27429;BME280;14881;48.092;11.574;2024-03-02T00:05:50;94457.44;;;4.50;100.00
27429;BME280;14881;48.092;11.574;2024-03-02T00:08:24;94454.16;;;4.53;100.00
27429;BME280;14881;48.092;11.574;2024-03-02T00:10:57;94449.34;;;4.50;100.00
27429;BME280;14881;48.092;11.574;2024-03-02T00:13:25;94457.13;;;4.51;100.00
27429;BME280;14881;48.092;11.574;2024-03-02T00:15:55;94450.13;;;4.50;100.00
27429;BME280;14881;48.092;11.574;2024-03-02T00:18:26;94448.03;;;4.47;100.00
27429;BME280;14881;48.092;11.574;2024-03-02T00:20:55;94443.72;;;4.46;100.00
27429;BME280;14881;48.092;11.574;2024-03-02T00:23:28;94435.38;;;4.48;100.00
27429;BME280;14881;48.092;11.574;2024-03-02T00:25:57;94441.28;;;4.50;100.00
27429;BME280;14881;48.092;11.574;2024-03-02T00:28:27;94444.19;;;4.53;100.00
27429;BME280;14881;48.092;11.574;2024-03-02T00:30:58;94433.22;;;4.50;100.00
27429;BME280;14881;48.092;11.574;2024-03-02T00:33:30;94432.69;;;4.48;100.00
27429;BME280;14881;48.092;11.574;2024-03-02T00:35:58;94433.78;;;4.47;100.00
27429;BME280;14881;48.092;11.574;2024-03-02T00:38:28;94433.78;;;4.47;100.00
27429;BME280;14881;48.092;11.574;2024-03-02T00:40:58;94434.03;;;4.45;100.00
27429;BME280;14881;48.092;11.574;2024-03-02T00:43:42;94425.19;;;4.45;100.00
27429;BME280;14881;48.092;11.574;2024-03-02T00:46:15;94430.28;;;4.46;100.00
27429;BME280;14881;48.092;11.574;2024-03-02T00:49:03;94428.66;;;4.45;100.00
27429;BME280;14881;48.092;11.574;2024-03-02T00:51:33;94424.63;;;4.48;100.00
27429;BME280;14881;48.092;11.574;2024-03-02T00:54:05;94425.16;;;4.50;100.00
27429;BME280;14881;48.092;11.574;2024-03-02T00:56:33;94420.56;;;4.50;100.00
27429;BME280;14881;48.092;11.574;2024-03-02T00:59:02;94422.16;;;4.51;100.00
27429;BME280;14881;48.092;11.574;2024-03-02T01:01:30;94413.28;;;4.51;100.00
27429;BME280;14881;48.092;11.574;2024-03-02T01:03:58;94424.03;;;4.51;100.00
27429;BME280;14881;48.092;11.574;2024-03-02T01:06:26;94417.84;;;4.55;100.00
27429;BME280;14881;48.092;11.574;2024-03-02T01:08:54;94422.66;;;4.59;100.00
27429;BME280;14881;48.092;11.574;2024-03-02T01:11:23;94423.19;;;4.61;100.00
27429;BME280;14881;48.092;11.574;2024-03-02T01:13:51;94427.50;;;4.62;100.00
27429;BME280;14881;48.092;11.574;2024-03-02T01:16:19;94418.91;;;4.60;100.00
27429;BME280;14881;48.092;11.574;2024-03-02T01:18:47;94418.91;;;4.60;100.00
27429;BME280;14881;48.092;11.574;2024-03-02T01:21:16;94418.38;;;4.58;100.00
27429;BME280;14881;48.092;11.574;2024-03-02T01:23:44;94424.03;;;4.56;100.00
27429;BME280;14881;48.092;11.574;2024-03-02T01:26:13;94420.81;;;4.54;100.00
27429;BME280;14881;48.092;11.574;2024-03-02T01:28:42;94421.09;;;4.52;100.00
27429;BME280;14881;48.092;11.574;2024-03-02T01:31:10;94422.47;;;4.50;100.00
27429;BME280;14881;48.092;11.574;2024-03-02T01:33:38;94426.47;;;4.52;100.00
27429;BME280;14881;48.092;11.574;2024-03-02T01:36:06;94421.09;;;4.52;100.00
27429;BME280;14881;48.092;11.574;2024-03-02T01:38:35;94422.16;;;4.51;100.00
27429;BME280;14881;48.092;11.574;2024-03-02T01:41:03;94421.34;;;4.51;100.00
27429;BME280;14881;48.092;11.574;2024-03-02T01:43:31;94420.56;;;4.50;100.00
27429;BME280;14881;48.092;11.574;2024-03-02T01:46:00;94421.66;;;4.49;100.00
27429;BME280;14881;48.092;11.574;2024-03-02T01:48:28;94427.84;;;4.50;100.00
27429;BME280;14881;48.092;11.574;2024-03-02T01:50:58;94417.38;;;4.48;100.00
27429;BME280;14881;48.092;11.574;2024-03-02T01:53:26;94421.94;;;4.48;100.00
27429;BME280;14881;48.092;11.574;2024-03-02T01:55:54;94413.34;;;4.46;100.00
27429;BME280;14881;48.092;11.574;2024-03-02T01:58:22;94407.44;;;4.44;100.00
27429;BME280;14881;48.092;11.574;2024-03-02T02:00:50;94409.31;;;4.43;100.00
27429;BME280;14881;48.092;11.574;2024-03-02T02:03:19;94409.31;;;4.43;100.00
27429;BME280;14881;48.092;11.574;2024-03-02T02:05:47;94403.94;;;4.43;100.00
27429;BME280;14881;48.092;11.574;2024-03-02T02:08:15;94394.28;;;4.42;100.00
27429;BME280;14881;48.092;11.574;2024-03-02T02:10:43;94392.41;;;4.38;100.00
27429;BME280;14881;48.092;11.574;2024-03-02T02:13:14;94390.81;;;4.37;100.00
27429;BME280;14881;48.092;11.574;2024-03-02T02:15:42;94386.22;;;4.37;100.00
27429;BME280;14881;48.092;11.574;2024-03-02T02:18:10;94392.69;;;4.36;100.00
27429;BME280;14881;48.092;11.574;2024-03-02T02:20:39;94379.78;;;4.33;100.00
27429;BME280;14881;48.092;11.574;2024-03-02T02:23:08;94381.41;;;4.34;100.00
27429;BME280;14881;48.092;11.574;2024-03-02T02:25:36;94380.59;;;4.34;100.00
27429;BME280;14881;48.092;11.574;2024-03-02T02:28:10;94375.47;;;4.37;100.00
27429;BME280;14881;48.092;11.574;2024-03-02T02:30:38;94370.38;;;4.36;100.00
27429;BME280;14881;48.092;11.574;2024-03-02T02:33:06;94385.16;;;4.38;100.00
27429;BME280;14881;48.092;11.574;2024-03-02T02:35:34;94381.38;;;4.39;100.00
27429;BME280;14881;48.092;11.574;2024-03-02T02:38:02;94377.34;;;4.42;100.00
27429;BME280;14881;48.092;11.574;2024-03-02T02:40:32;94378.13;;;4.42;100.00
27429;BME280;14881;48.092;11.574;2024-03-02T02:42:59;94377.34;;;4.42;100.00
27429;BME280;14881;48.092;11.574;2024-03-02T02:45:27;94376.25;;;4.43;100.00
27429;BME280;14881;48.092;11.574;2024-03-02T02:47:55;94373.84;;;4.41;100.00
27429;BME280;14881;48.092;11.574;2024-03-02T02:50:23;94378.94;;;4.43;100.00
27429;BME280;14881;48.092;11.574;2024-03-02T02:52:51;94381.63;;;4.43;100.00
27429;BME280;14881;48.092;11.574;2024-03-02T02:55:19;94375.97;;;4.44;100.00
27429;BME280;14881;48.092;11.574;2024-03-02T02:57:48;94380.28;;;4.45;100.00
27429;BME280;14881;48.092;11.574;2024-03-02T03:00:16;94384.56;;;4.46;100.00
27429;BME280;14881;48.092;11.574;2024-03-02T03:02:48;94383.50;;;4.47;100.00
27429;BME280;14881;48.092;11.574;2024-03-02T03:05:17;94386.19;;;4.47;100.00
27429;BME280;14881;48.092;11.574;2024-03-02T03:07:45;94389.66;;;4.48;100.00
27429;BME280;14881;48.092;11.574;2024-03-02T03:10:17;94392.88;;;4.50;100.00
27429;BME280;14881;48.092;11.574;2024-03-02T03:12:45;94396.88;;;4.52;100.00
27429;BME280;14881;48.092;11.574;2024-03-02T03:15:14;94396.31;;;4.55;100.00
27429;BME280;14881;48.092;11.574;2024-03-02T03:17:43;94393.88;;;4.59;100.00
27429;BME280;14881;48.092;11.574;2024-03-02T03:20:12;94393.34;;;4.62;100.00
27429;BME280;14881;48.092;11.574;2024-03-02T03:22:42;94398.44;;;4.64;100.00
27429;BME280;14881;48.092;11.574;2024-03-02T03:25:10;94399.47;;;4.68;100.00
27429;BME280;14881;48.092;11.574;2024-03-02T03:27:37;94397.31;;;4.70;100.00
27429;BME280;14881;48.092;11.574;2024-03-02T03:30:06;94401.84;;;4.74;100.00
27429;BME280;14881;48.092;11.574;2024-03-02T03:32:36;94398.06;;;4.75;100.00
27429;BME280;14881;48.092;11.574;2024-03-02T03:35:05;94400.50;;;4.77;100.00
27429;BME280;14881;48.092;11.574;2024-03-02T03:37:33;94403.97;;;4.77;100.00
27429;BME280;14881;48.092;11.574;2024-03-02T03:40:02;94399.97;;;4.75;100.00
27429;BME280;14881;48.092;11.574;2024-03-02T03:42:29;94398.63;;;4.72;100.00
27429;BME280;14881;48.092;11.574;2024-03-02T03:44:57;94407.25;;;4.69;100.00
27429;BME280;14881;48.092;11.574;2024-03-02T03:47:25;94407.03;;;4.66;100.00
27429;BME280;14881;48.092;11.574;2024-03-02T03:49:54;94409.72;;;4.66;100.00
27429;BME280;14881;48.092;11.574;2024-03-02T03:52:25;94404.91;;;4.63;100.00
27429;BME280;14881;48.092;11.574;2024-03-02T03:54:52;94413.53;;;4.60;100.00
27429;BME280;14881;48.092;11.574;2024-03-02T03:57:20;94408.94;;;4.60;100.00
27429;BME280;14881;48.092;11.574;2024-03-02T03:59:51;94410.31;;;4.58;100.00
27429;BME280;14881;48.092;11.574;2024-03-02T04:02:19;94404.84;;;4.68;100.00
27429;BME280;14881;48.092;11.574;2024-03-02T04:04:47;94412.97;;;4.63;100.00
27429;BME280;14881;48.092;11.574;2024-03-02T04:07:16;94410.03;;;4.59;100.00
27429;BME280;14881;48.092;11.574;2024-03-02T04:09:44;94405.53;;;4.49;100.00
27429;BME280;14881;48.092;11.574;2024-03-02T04:12:12;94407.63;;;4.52;100.00
27429;BME280;14881;48.092;11.574;2024-03-02T04:14:40;94408.72;;;4.51;100.00
27429;BME280;14881;48.092;11.574;2024-03-02T04:17:09;94409.56;;;4.47;100.00
27429;BME280;14881;48.092;11.574;2024-03-02T04:19:37;94412.53;;;4.45;100.00
27429;BME280;14881;48.092;11.574;2024-03-02T04:22:05;94417.66;;;4.47;100.00
27429;BME280;14881;48.092;11.574;2024-03-02T04:24:45;94419.00;;;4.44;100.00
27429;BME280;14881;48.092;11.574;2024-03-02T04:27:13;94415.50;;;4.44;100.00
27429;BME280;14881;48.092;11.574;2024-03-02T04:29:41;94419.53;;;4.46;100.00
27429;BME280;14881;48.092;11.574;2024-03-02T04:32:09;94422.22;;;4.46;100.00
27429;BME280;14881;48.092;11.574;2024-03-02T04:34:37;94420.06;;;4.48;100.00
27429;BME280;14881;48.092;11.574;2024-03-02T04:37:05;94423.25;;;4.50;100.00
27429;BME280;14881;48.092;11.574;2024-03-02T04:39:34;94423.81;;;4.47;100.00
27429;BME280;14881;48.092;11.574;2024-03-02T04:42:04;94421.41;;;4.46;100.00
27429;BME280;14881;48.092;11.574;2024-03-02T04:44:32;94423.56;;;4.44;100.00
27429;BME280;14881;48.092;11.574;2024-03-02T04:47:00;94428.41;;;4.42;100.00
27429;BME280;14881;48.092;11.574;2024-03-02T04:49:28;94433.16;;;4.55;100.00
27429;BME280;14881;48.092;11.574;2024-03-02T04:51:56;94434.03;;;4.45;100.00
27429;BME280;14881;48.092;11.574;2024-03-02T04:54:24;94435.66;;;4.46;100.00
27429;BME280;14881;48.092;11.574;2024-03-02T04:56:52;94438.28;;;4.51;100.00
27429;BME280;14881;48.092;11.574;2024-03-02T04:59:22;94444.19;;;4.53;100.00
27429;BME280;14881;48.092;11.574;2024-03-02T05:01:49;94441.56;;;4.48;100.00
27429;BME280;14881;48.092;11.574;2024-03-02T05:04:17;94453.94;;;4.44;100.00
27429;BME280;14881;48.092;11.574;2024-03-02T05:06:45;94452.34;;;4.43;100.00
27429;BME280;14881;48.092;11.574;2024-03-02T05:09:19;94455.84;;;4.44;100.00
27429;BME280;14881;48.092;11.574;2024-03-02T05:11:47;94457.16;;;4.46;100.00
27429;BME280;14881;48.092;11.574;2024-03-02T05:14:37;94455.50;;;4.50;100.00
27429;BME280;14881;48.092;11.574;2024-03-02T05:17:06;94458.19;;;4.50;100.00
27429;BME280;14881;48.092;11.574;2024-03-02T05:19:33;94458.72;;;4.52;100.00
27429;BME280;14881;48.092;11.574;2024-03-02T05:22:01;94459.31;;;4.49;100.00
27429;BME280;14881;48.092;11.574;2024-03-02T05:24:29;94452.59;;;4.47;100.00
27429;BME280;14881;48.092;11.574;2024-03-02T05:26:57;94452.06;;;4.45;100.00
27429;BME280;14881;48.092;11.574;2024-03-02T05:29:26;94451.53;;;4.43;100.00
27429;BME280;14881;48.092;11.574;2024-03-02T05:31:55;94460.97;;;4.40;100.00
27429;BME280;14881;48.092;11.574;2024-03-02T05:34:23;94453.16;;;4.39;100.00
27429;BME280;14881;48.092;11.574;2024-03-02T05:36:51;94452.69;;;4.32;100.00
27429;BME280;14881;48.092;11.574;2024-03-02T05:39:19;94449.72;;;4.28;100.00
27429;BME280;14881;48.092;11.574;2024-03-02T05:41:46;94446.50;;;4.26;100.00
27429;BME280;14881;48.092;11.574;2024-03-02T05:44:14;94447.59;;;4.25;100.00
27429;BME280;14881;48.092;11.574;2024-03-02T05:46:42;94455.94;;;4.24;100.00
27429;BME280;14881;48.092;11.574;2024-03-02T05:49:12;94455.38;;;4.27;100.00
27429;BME280;14881;48.092;11.574;2024-03-02T05:51:39;94462.09;;;4.29;100.00
27429;BME280;14881;48.092;11.574;2024-03-02T05:54:08;94458.84;;;4.32;100.00
27429;BME280;14881;48.092;11.574;2024-03-02T05:56:36;94455.88;;;4.34;100.00
27429;BME280;14881;48.092;11.574;2024-03-02T05:59:04;94459.09;;;4.36;100.00
27429;BME280;14881;48.092;11.574;2024-03-02T06:01:39;94460.41;;;4.38;100.00
27429;BME280;14881;48.092;11.574;2024-03-02T06:04:07;94464.19;;;4.42;100.00
27429;BME280;14881;48.092;11.574;2024-03-02T06:06:36;94466.59;;;4.44;100.00
27429;BME280;14881;48.092;11.574;2024-03-02T06:09:06;94458.25;;;4.45;100.00
27429;BME280;14881;48.092;11.574;2024-03-02T06:11:34;94459.31;;;4.49;100.00
27429;BME280;14881;48.092;11.574;2024-03-02T06:14:03;94463.84;;;4.54;100.00
27429;BME280;14881;48.092;11.574;2024-03-02T06:16:31;94458.19;;;4.55;100.00
27429;BME280;14881;48.092;11.574;2024-03-02T06:18:59;94467.81;;;4.67;100.00
27429;BME280;14881;48.092;11.574;2024-03-02T06:21:27;94472.13;;;4.63;100.00
27429;BME280;14881;48.092;11.574;2024-03-02T06:23:56;94468.38;;;4.59;100.00
27429;BME280;14881;48.092;11.574;2024-03-02T06:26:24;94467.59;;;4.58;100.00
27429;BME280;14881;48.092;11.574;2024-03-02T06:28:52;94471.38;;;4.52;100.00
27429;BME280;14881;48.092;11.574;2024-03-02T06:31:20;94467.13;;;4.46;100.00
27429;BME280;14881;48.092;11.574;2024-03-02T06:33:48;94465.53;;;4.40;100.00
27429;BME280;14881;48.092;11.574;2024-03-02T06:36:16;94463.13;;;4.38;100.00
27429;BME280;14881;48.092;11.574;2024-03-02T06:38:43;94469.63;;;4.32;100.00
27429;BME280;14881;48.092;11.574;2024-03-02T06:41:13;94461.00;;;4.30;100.00
27429;BME280;14881;48.092;11.574;2024-03-02T06:43:40;94462.91;;;4.30;100.00
27429;BME280;14881;48.092;11.574;2024-03-02T06:46:08;94453.78;;;4.26;100.00
27429;BME280;14881;48.092;11.574;2024-03-02T06:48:36;94458.34;;;4.25;100.00
27429;BME280;14881;48.092;11.574;2024-03-02T06:51:04;94463.47;;;4.22;100.00
27429;BME280;14881;48.092;11.574;2024-03-02T06:53:32;94463.72;;;4.20;100.00
27429;BME280;14881;48.092;11.574;2024-03-02T06:56:01;94470.44;;;4.23;100.00
27429;BME280;14881;48.092;11.574;2024-03-02T06:58:30;94470.19;;;4.19;100.00
27429;BME280;14881;48.092;11.574;2024-03-02T07:00:59;94465.63;;;4.19;100.00
27429;BME280;14881;48.092;11.574;2024-03-02T07:03:27;94463.72;;;4.20;100.00
27429;BME280;14881;48.092;11.574;2024-03-02T07:05:55;94457.03;;;4.17;100.00
27429;BME280;14881;48.092;11.574;2024-03-02T07:08:23;94447.06;;;4.18;100.00
27429;BME280;14881;48.092;11.574;2024-03-02T07:10:51;94461.03;;;4.20;100.00
27429;BME280;14881;48.092;11.574;2024-03-02T07:13:19;94469.91;;;4.20;100.00
27429;BME280;14881;48.092;11.574;2024-03-02T07:15:49;94468.03;;;4.21;100.00
27429;BME280;14881;48.092;11.574;2024-03-02T07:18:42;94465.34;;;4.21;100.00
27429;BME280;14881;48.092;11.574;2024-03-02T07:21:17;94470.19;;;4.19;100.00
27429;BME280;14881;48.092;11.574;2024-03-02T07:23:48;94463.19;;;4.18;100.00
27429;BME280;14881;48.092;11.574;2024-03-02T07:26:16;94469.09;;;4.20;100.00
27429;BME280;14881;48.092;11.574;2024-03-02T07:28:48;94468.84;;;4.22;100.00
27429;BME280;14881;48.092;11.574;2024-03-02T07:31:17;94464.25;;;4.22;100.00
27429;BME280;14881;48.092;11.574;2024-03-02T07:33:45;94474.75;;;4.24;100.00
27429;BME280;14881;48.092;11.574;2024-03-02T07:36:17;94477.69;;;4.27;100.00
27429;BME280;14881;48.092;11.574;2024-03-02T07:38:46;94473.66;;;4.30;100.00
27429;BME280;14881;48.092;11.574;2024-03-02T07:41:16;94470.66;;;4.36;100.00
27429;BME280;14881;48.092;11.574;2024-03-02T07:43:44;94481.38;;;4.46;100.00
27429;BME280;14881;48.092;11.574;2024-03-02T07:46:12;94478.09;;;4.54;100.00
27429;BME280;14881;48.092;11.574;2024-03-02T07:48:43;94474.56;;;4.64;100.00
27429;BME280;14881;48.092;11.574;2024-03-02T07:51:11;94487.66;;;4.76;100.00
27429;BME280;14881;48.092;11.574;2024-03-02T07:53:41;94480.00;;;4.93;100.00
27429;BME280;14881;48.092;11.574;2024-03-02T07:56:10;94481.81;;;5.03;100.00
27429;BME280;14881;48.092;11.574;2024-03-02T07:58:38;94485.72;;;5.20;100.00
27429;BME280;14881;48.092;11.574;2024-03-02T08:01:07;94481.59;;;5.33;100.00
27429;BME280;14881;48.092;11.574;2024-03-02T08:03:35;94484.69;;;5.50;100.00
27429;BME280;14881;48.092;11.574;2024-03-02T08:06:04;94487.00;;;5.62;100.00
27429;BME280;14881;48.092;11.574;2024-03-02T08:08:32;94487.13;;;5.76;100.00
27429;BME280;14881;48.092;11.574;2024-03-02T08:11:00;94491.09;;;5.88;100.00
27429;BME280;14881;48.092;11.574;2024-03-02T08:13:28;94491.09;;;5.88;100.00
27429;BME280;14881;48.092;11.574;2024-03-02T08:15:56;94490.47;;;5.97;100.00
27429;BME280;14881;48.092;11.574;2024-03-02T08:18:24;94486.50;;;6.13;100.00
27429;BME280;14881;48.092;11.574;2024-03-02T08:20:52;94483.41;;;6.24;100.00
27429;BME280;14881;48.092;11.574;2024-03-02T08:23:21;94485.56;;;6.46;100.00
27429;BME280;14881;48.092;11.574;2024-03-02T08:25:49;94475.84;;;6.69;100.00
27429;BME280;14881;48.092;11.574;2024-03-02T08:28:17;94479.13;;;6.85;100.00
27429;BME280;14881;48.092;11.574;2024-03-02T08:30:45;94481.38;;;6.78;100.00
27429;BME280;14881;48.092;11.574;2024-03-02T08:33:13;94480.97;;;6.89;100.00
27429;BME280;14881;48.092;11.574;2024-03-02T08:35:41;94481.16;;;6.93;100.00
27429;BME280;14881;48.092;11.574;2024-03-02T08:38:09;94480.47;;;7.06;100.00
27429;BME280;14881;48.092;11.574;2024-03-02T08:40:38;94476.13;;;7.24;100.00
27429;BME280;14881;48.092;11.574;2024-03-02T08:43:06;94475.59;;;7.41;100.00
27429;BME280;14881;48.092;11.574;2024-03-02T08:45:34;94470.41;;;7.44;100.00
27429;BME280;14881;48.092;11.574;2024-03-02T08:48:03;94482.66;;;7.55;100.00
27429;BME280;14881;48.092;11.574;2024-03-02T08:50:31;94479.31;;;7.77;100.00
27429;BME280;14881;48.092;11.574;2024-03-02T08:52:59;94474.94;;;7.95;100.00
27429;BME280;14881;48.092;11.574;2024-03-02T08:55:26;94470.44;;;8.18;100.00
27429;BME280;14881;48.092;11.574;2024-03-02T08:57:56;94466.25;;;8.39;100.00
27429;BME280;14881;48.092;11.574;2024-03-02T09:00:24;94464.03;;;8.68;100.00
27429;BME280;14881;48.092;11.574;2024-03-02T09:02:52;94452.06;;;8.83;100.00
27429;BME280;14881;48.092;11.574;2024-03-02T09:05:20;94456.56;;;8.88;100.00
27429;BME280;14881;48.092;11.574;2024-03-02T09:07:48;94452.75;;;8.89;100.00
27429;BME280;14881;48.092;11.574;2024-03-02T09:10:17;94460.03;;;9.16;100.00
27429;BME280;14881;48.092;11.574;2024-03-02T09:12:44;94459.19;;;9.51;100.00
27429;BME280;14881;48.092;11.574;2024-03-02T09:15:14;94457.28;;;9.83;100.00
27429;BME280;14881;48.092;11.574;2024-03-02T09:17:42;94450.38;;;10.07;100.00
27429;BME280;14881;48.092;11.574;2024-03-02T09:20:10;94456.09;;;10.28;100.00
27429;BME280;14881;48.092;11.574;2024-03-02T09:22:38;94450.97;;;10.27;100.00
27429;BME280;14881;48.092;11.574;2024-03-02T09:25:07;94452.81;;;10.49;100.00
27429;BME280;14881;48.092;11.574;2024-03-02T09:27:36;94443.00;;;10.78;100.00
27429;BME280;14881;48.092;11.574;2024-03-02T09:30:06;94441.28;;;11.00;100.00
27429;BME280;14881;48.092;11.574;2024-03-02T09:32:37;94437.13;;;11.02;100.00
27429;BME280;14881;48.092;11.574;2024-03-02T09:35:05;94437.75;;;10.99;100.00
27429;BME280;14881;48.092;11.574;2024-03-02T09:37:33;94433.78;;;11.05;100.00
27429;BME280;14881;48.092;11.574;2024-03-02T09:40:01;94438.72;;;11.12;100.00
27429;BME280;14881;48.092;11.574;2024-03-02T09:42:29;94431.34;;;11.12;100.00
27429;BME280;14881;48.092;11.574;2024-03-02T09:44:58;94430.88;;;11.19;100.00
27429;BME280;14881;48.092;11.574;2024-03-02T09:47:26;94427.66;;;11.26;100.00
27429;BME280;14881;48.092;11.574;2024-03-02T09:49:56;94426.72;;;11.39;100.00
27429;BME280;14881;48.092;11.574;2024-03-02T09:52:24;94422.72;;;11.54;100.00
27429;BME280;14881;48.092;11.574;2024-03-02T09:54:52;94418.41;;;11.52;100.00
27429;BME280;14881;48.092;11.574;2024-03-02T09:57:20;94420.97;;;11.58;100.00
27429;BME280;14881;48.092;11.574;2024-03-02T09:59:47;94419.47;;;11.69;100.00
27429;BME280;14881;48.092;11.574;2024-03-02T10:02:15;94418.84;;;11.89;100.00
27429;BME280;14881;48.092;11.574;2024-03-02T10:04:43;94416.16;;;12.18;100.00
27429;BME280;14881;48.092;11.574;2024-03-02T10:07:14;94407.56;;;12.46;100.00
27429;BME280;14881;48.092;11.574;2024-03-02T10:09:43;94402.94;;;12.97;100.00
27429;BME280;14881;48.092;11.574;2024-03-02T10:12:13;94403.56;;;12.73;100.00
27429;BME280;14881;48.092;11.574;2024-03-02T10:14:42;94405.88;;;13.12;100.00
27429;BME280;14881;48.092;11.574;2024-03-02T10:17:11;94397.63;;;13.42;100.00
27429;BME280;14881;48.092;11.574;2024-03-02T10:19:40;94400.84;;;13.56;100.00
27429;BME280;14881;48.092;11.574;2024-03-02T10:22:09;94393.31;;;13.86;100.00
27429;BME280;14881;48.092;11.574;2024-03-02T10:24:39;94392.44;;;13.94;100.00
27429;BME280;14881;48.092;11.574;2024-03-02T10:27:08;94385.59;;;14.45;100.00
27429;BME280;14881;48.092;11.574;2024-03-02T10:29:37;94392.97;;;14.57;100.00
27429;BME280;14881;48.092;11.574;2024-03-02T10:32:08;94385.91;;;14.19;100.00
27429;BME280;14881;48.092;11.574;2024-03-02T10:34:39;94378.25;;;14.13;100.00
27429;BME280;14881;48.092;11.574;2024-03-02T10:37:07;94379.84;;;14.38;100.00
27429;BME280;14881;48.092;11.574;2024-03-02T10:39:35;94377.63;;;14.65;100.00
27429;BME280;14881;48.092;11.574;2024-03-02T10:42:05;94379.22;;;14.66;100.00
27429;BME280;14881;48.092;11.574;2024-03-02T10:44:33;94368.34;;;15.06;100.00
27429;BME280;14881;48.092;11.574;2024-03-02T10:47:04;94359.09;;;14.98;100.00
27429;BME280;14881;48.092;11.574;2024-03-02T10:49:32;94351.34;;;15.00;100.00
27429;BME280;14881;48.092;11.574;2024-03-02T10:52:00;94351.66;;;15.23;100.00
27429;BME280;14881;48.092;11.574;2024-03-02T10:54:29;94350.84;;;15.50;100.00
27429;BME280;14881;48.092;11.574;2024-03-02T10:57:07;94342.34;;;15.68;100.00
27429;BME280;14881;48.092;11.574;2024-03-02T10:59:37;94338.97;;;15.58;100.00
27429;BME280;14881;48.092;11.574;2024-03-02T11:02:11;94342.72;;;15.82;100.00
27429;BME280;14881;48.092;11.574;2024-03-02T11:04:40;94334.28;;;15.59;100.00
27429;BME280;14881;48.092;11.574;2024-03-02T11:07:10;94327.44;;;15.81;100.00
27429;BME280;14881;48.092;11.574;2024-03-02T11:09:41;94323.84;;;15.92;100.00
27429;BME280;14881;48.092;11.574;2024-03-02T11:12:17;94318.78;;;16.42;100.00
27429;BME280;14881;48.092;11.574;2024-03-02T11:14:46;94313.13;;;16.85;100.00
27429;BME280;14881;48.092;11.574;2024-03-02T11:17:15;94308.22;;;17.29;100.00
27429;BME280;14881;48.092;11.574;2024-03-02T11:19:44;94301.53;;;17.50;100.00
27429;BME280;14881;48.092;11.574;2024-03-02T11:22:13;94293.97;;;17.43;100.00
27429;BME280;14881;48.092;11.574;2024-03-02T11:24:47;94285.00;;;17.88;100.00
27429;BME280;14881;48.092;11.574;2024-03-02T11:30:51;94286.09;;;18.29;100.00
27429;BME280;14881;48.092;11.574;2024-03-02T11:33:24;94276.97;;;17.99;100.00
27429;BME280;14881;48.092;11.574;2024-03-02T11:35:55;94270.41;;;18.07;100.00
27429;BME280;14881;48.092;11.574;2024-03-02T11:38:27;94265.91;;;17.95;100.00
27429;BME280;14881;48.092;11.574;2024-03-02T11:40:55;94268.81;;;18.06;100.00
27429;BME280;14881;48.092;11.574;2024-03-02T11:43:27;94265.66;;;17.81;100.00
27429;BME280;14881;48.092;11.574;2024-03-02T11:46:00;94256.88;;;17.95;100.00
27429;BME280;14881;48.092;11.574;2024-03-02T11:48:31;94246.66;;;17.95;100.00
27429;BME280;14881;48.092;11.574;2024-03-02T11:51:00;94250.00;;;18.08;100.00
27429;BME280;14881;48.092;11.574;2024-03-02T11:53:28;94240.75;;;17.93;100.00
27429;BME280;14881;48.092;11.574;2024-03-02T11:56:01;94239.31;;;18.03;100.00
27429;BME280;14881;48.092;11.574;2024-03-02T11:58:31;94242.75;;;17.54;100.00
27429;BME280;14881;48.092;11.574;2024-03-02T12:01:00;94237.44;;;17.42;100.00
27429;BME280;14881;48.092;11.574;2024-03-02T12:03:29;94238.56;;;16.99;100.00
27429;BME280;14881;48.092;11.574;2024-03-02T12:05:59;94231.56;;;17.01;100.00
27429;BME280;14881;48.092;11.574;2024-03-02T12:08:26;94231.66;;;17.47;100.00
27429;BME280;14881;48.092;11.574;2024-03-02T12:10:56;94231.91;;;17.81;100.00
27429;BME280;14881;48.092;11.574;2024-03-02T12:13:24;94218.47;;;17.56;100.00
27429;BME280;14881;48.092;11.574;2024-03-02T12:15:55;94216.25;;;17.85;100.00
27429;BME280;14881;48.092;11.574;2024-03-02T12:18:23;94222.16;;;18.09;100.00
27429;BME280;14881;48.092;11.574;2024-03-02T12:20:52;94221.03;;;17.65;100.00
27429;BME280;14881;48.092;11.574;2024-03-02T12:23:24;94204.06;;;17.82;100.00
27429;BME280;14881;48.092;11.574;2024-03-02T12:25:53;94201.72;;;17.61;100.00
27429;BME280;14881;48.092;11.574;2024-03-02T12:28:21;94206.69;;;17.75;100.00
27429;BME280;14881;48.092;11.574;2024-03-02T12:30:49;94191.00;;;17.56;100.00
27429;BME280;14881;48.092;11.574;2024-03-02T12:33:19;94192.59;;;16.73;100.00
27429;BME280;14881;48.092;11.574;2024-03-02T12:35:49;94196.31;;;16.65;100.00
27429;BME280;14881;48.092;11.574;2024-03-02T12:38:17;94192.44;;;16.66;100.00
27429;BME280;14881;48.092;11.574;2024-03-02T12:40:44;94185.66;;;16.79;100.00
27429;BME280;14881;48.092;11.574;2024-03-02T12:43:15;94179.84;;;17.03;100.00
27429;BME280;14881;48.092;11.574;2024-03-02T12:45:42;94173.66;;;17.07;100.00
27429;BME280;14881;48.092;11.574;2024-03-02T12:48:10;94168.91;;;17.26;100.00
27429;BME280;14881;48.092;11.574;2024-03-02T12:50:40;94166.56;;;17.48;100.00
27429;BME280;14881;48.092;11.574;2024-03-02T12:53:14;94156.25;;;17.64;100.00
27429;BME280;14881;48.092;11.574;2024-03-02T12:55:42;94156.03;;;17.99;100.00
27429;BME280;14881;48.092;11.574;2024-03-02T12:58:16;94143.03;;;17.96;100.00
27429;BME280;14881;48.092;11.574;2024-03-02T13:00:44;94145.75;;;18.22;100.00